Nieuwpoort, Belgium
Current Conditions -  °F | °C
As of 10:55 AM on Sunday 23 Nov 2014 (Local Time) from EBFN Reporting Station
Broken Clouds Broken Clouds  
Wind Chill: 54°   Ceiling: 22000
Heat Index: 54°   Visibility: 5mi
Dew Point: 50°   Wind: 5mph
Humidity: 88%   Direction: 180°S
Pressure: 29.97"   Gusts: NA
Location:  51.13°N, 2.75°E
Report Text: EBFN 230955Z 18004KT 8000 FEW120 BKN220 12/10 Q1015 BLU
Loading
Personal Weather Stations






























Interactive Weather Map New forecast layout! Learn more

10-Day Weather Forecast

Advertisements
Track Severe Weather on mobile